Leonidas, Minnesota
Current Conditions -  °F | °C
As of 2:31 AM on Monday 22 Dec 2014 (Local Time) from KEVM Reporting Station
Unknown Precip Unknown Precip  
Wind Chill: 26°   Ceiling: 300
Heat Index: 32°   Visibility: 1mi
Dew Point: 32°   Wind: 7mph
Humidity: 100%   Direction: 150°SSE
Pressure: 29.7"   Gusts: NA
Location:  47.4232°N, 92.5107°W
Report Text: KEVM 220831Z AUTO 15006KT 1SM UP OVC003 00/00 A2970 RMK AO2
Loading
Personal Weather Stations






























Interactive Weather Map New forecast layout! Learn more

10-Day Weather Forecast

Advertisements
Track Severe Weather on mobile